Time;durP1;ratioP1;P1;durP2;ratioP2;P2;SDS_P1;SDS_P2;PMS_P1;PMS_P2;Temp;Humidity;BMP_temperature;BMP_pressure;BME280_temperature;BME280_humidity;BME280_pressure;Samples;Min_cycle;Max_cycle;Signal;HPM_P1;HPM_P2
2022/01/02 00:00:19;;;;;;;9.80;6.20;;;11.10;99.90;;;;;;5034173;28;20106;-74
2022/01/02 00:02:50;;;;;;;9.15;6.07;;;11.10;99.90;;;;;;5035890;28;20101;-72
2022/01/02 00:05:20;;;;;;;10.23;5.97;;;11.10;99.90;;;;;;5036792;28;20049;-73
2022/01/02 00:07:56;;;;;;;8.73;5.60;;;11.00;99.90;;;;;;5012325;28;20137;-72
2022/01/02 00:10:22;;;;;;;9.30;5.82;;;11.00;99.90;;;;;;5017793;28;20467;-74
2022/01/02 00:12:57;;;;;;;8.82;6.05;;;11.00;99.90;;;;;;5034110;28;20087;-72
2022/01/02 00:15:22;;;;;;;10.52;5.80;;;11.00;99.90;;;;;;5000586;28;20469;-72
2022/01/02 00:17:55;;;;;;;8.68;6.20;;;11.00;99.90;;;;;;5014949;28;20041;-71
2022/01/02 00:20:32;;;;;;;14.60;6.28;;;11.00;99.90;;;;;;5017672;28;20057;-73
2022/01/02 00:23:06;;;;;;;9.52;6.10;;;10.90;99.90;;;;;;5017381;28;20080;-73
2022/01/02 00:25:41;;;;;;;8.05;5.72;;;10.90;99.90;;;;;;5017341;28;20041;-73
2022/01/02 00:28:10;;;;;;;8.95;6.07;;;10.90;99.90;;;;;;5017326;28;20047;-74
2022/01/02 00:30:36;;;;;;;10.80;6.80;;;10.90;99.90;;;;;;5017427;28;20061;-72
2022/01/02 00:33:02;;;;;;;11.18;6.15;;;10.90;99.90;;;;;;5016448;28;20045;-71
2022/01/02 00:35:27;;;;;;;10.55;6.10;;;10.90;99.90;;;;;;5017366;28;20042;-72
2022/01/02 00:37:53;;;;;;;12.38;6.03;;;10.90;99.90;;;;;;5001188;28;20053;-73
2022/01/02 00:40:19;;;;;;;10.00;6.38;;;10.90;99.90;;;;;;5016430;28;20056;-72
2022/01/02 00:42:48;;;;;;;10.93;6.13;;;10.90;99.90;;;;;;5001335;28;20038;-73
2022/01/02 00:45:23;;;;;;;9.05;6.25;;;10.90;99.90;;;;;;5017682;28;20049;-72
2022/01/02 00:48:09;;;;;;;9.18;5.85;;;10.90;99.90;;;;;;5016353;28;20053;-72
2022/01/02 00:51:01;;;;;;;11.15;6.32;;;10.90;99.90;;;;;;5017153;28;20398;-75
2022/01/02 00:53:35;;;;;;;10.95;6.43;;;10.90;99.90;;;;;;5016929;28;20087;-74
2022/01/02 00:56:03;;;;;;;9.25;5.90;;;10.90;99.90;;;;;;5016882;28;20124;-73
2022/01/02 00:58:47;;;;;;;11.10;6.60;;;10.90;99.90;;;;;;5001246;28;20100;-72
2022/01/02 01:01:15;;;;;;;14.40;7.05;;;10.90;99.90;;;;;;5021876;28;20079;-74
2022/01/02 01:03:41;;;;;;;10.20;6.57;;;10.90;99.90;;;;;;5017223;28;20053;-72
2022/01/02 01:06:10;;;;;;;10.13;6.40;;;10.90;99.90;;;;;;5000087;28;20054;-71
2022/01/02 01:08:40;;;;;;;14.68;6.45;;;10.90;99.90;;;;;;5031593;28;20349;-72
2022/01/02 01:11:11;;;;;;;10.32;6.07;;;10.90;99.90;;;;;;5019574;28;20439;-75
2022/01/02 01:13:36;;;;;;;14.15;6.82;;;10.90;99.90;;;;;;5018977;28;20472;-73
2022/01/02 01:16:03;;;;;;;11.93;6.90;;;11.00;99.90;;;;;;5035191;28;20045;-73
2022/01/02 01:18:29;;;;;;;10.95;7.10;;;10.90;99.90;;;;;;5036886;28;20045;-74
2022/01/02 01:20:54;;;;;;;10.52;6.78;;;10.90;99.90;;;;;;5036256;28;20053;-72
2022/01/02 01:23:21;;;;;;;9.82;7.07;;;11.00;99.90;;;;;;5035713;28;20136;-73
2022/01/02 01:25:49;;;;;;;12.35;6.90;;;10.90;99.90;;;;;;5035519;28;20060;-74
2022/01/02 01:28:16;;;;;;;10.65;6.50;;;10.90;99.90;;;;;;5036137;28;20092;-72
2022/01/02 01:30:42;;;;;;;11.30;6.70;;;10.90;99.90;;;;;;5034143;28;20040;-70
2022/01/02 01:33:08;;;;;;;12.57;6.90;;;10.90;99.90;;;;;;5019625;28;20045;-71
2022/01/02 01:35:34;;;;;;;9.95;6.45;;;10.90;99.90;;;;;;5035928;28;20079;-72
2022/01/02 01:38:00;;;;;;;12.50;7.43;;;10.90;99.90;;;;;;5054113;28;20060;-74
2022/01/02 01:40:30;;;;;;;12.63;7.45;;;10.90;99.90;;;;;;5036119;28;20037;-72
2022/01/02 01:42:58;;;;;;;11.73;7.15;;;10.90;99.90;;;;;;5036335;28;20389;-72
2022/01/02 01:48:02;;;;;;;10.82;6.68;;;11.00;99.90;;;;;;5035565;28;20056;-74
2022/01/02 01:50:33;;;;;;;12.38;7.05;;;10.90;99.90;;;;;;5035229;28;20049;-73
2022/01/02 01:52:59;;;;;;;11.73;6.63;;;10.90;99.90;;;;;;5035340;28;20049;-72
2022/01/02 01:55:24;;;;;;;12.50;7.05;;;10.90;99.90;;;;;;5035568;28;20090;-72
2022/01/02 01:57:51;;;;;;;12.32;6.82;;;10.90;99.90;;;;;;5035319;28;20053;-73
2022/01/02 02:00:20;;;;;;;11.27;6.25;;;10.90;99.90;;;;;;5034554;28;20405;-73
2022/01/02 02:02:46;;;;;;;11.30;6.90;;;10.90;99.90;;;;;;5034949;28;20072;-73
2022/01/02 02:05:12;;;;;;;12.48;6.82;;;10.90;99.90;;;;;;5018771;28;20087;-72
2022/01/02 02:07:44;;;;;;;12.77;7.40;;;10.90;99.90;;;;;;5035425;28;20103;-73
2022/01/02 02:10:26;;;;;;;12.27;7.15;;;10.90;99.90;;;;;;5035734;28;20147;-74
2022/01/02 02:12:54;;;;;;;13.48;6.57;;;10.90;99.90;;;;;;5034884;28;20486;-72
2022/01/02 02:15:21;;;;;;;17.50;6.93;;;10.90;99.90;;;;;;5034720;28;20053;-73
2022/01/02 02:17:48;;;;;;;9.88;7.35;;;10.90;99.90;;;;;;5034636;28;20088;-73
2022/01/02 02:20:20;;;;;;;13.15;6.90;;;10.90;99.90;;;;;;5035257;28;20045;-71
2022/01/02 02:22:48;;;;;;;12.32;6.85;;;10.90;99.90;;;;;;5035027;28;20439;-72
2022/01/02 02:25:19;;;;;;;11.77;6.93;;;10.90;99.90;;;;;;5035304;28;20059;-74
2022/01/02 02:27:50;;;;;;;13.70;7.50;;;10.90;99.90;;;;;;5018797;28;20425;-72
2022/01/02 02:30:16;;;;;;;12.73;7.35;;;10.90;99.90;;;;;;5034332;28;20053;-73
2022/01/02 02:32:42;;;;;;;10.43;6.47;;;10.90;99.90;;;;;;5033955;28;20132;-72
2022/01/02 02:35:08;;;;;;;13.60;7.85;;;10.90;99.90;;;;;;5034791;28;20577;-72
2022/01/02 02:37:34;;;;;;;17.55;7.30;;;10.90;99.90;;;;;;5034530;28;20113;-70
2022/01/02 02:40:00;;;;;;;12.63;6.80;;;10.90;99.90;;;;;;5032600;28;20091;-71
2022/01/02 02:42:47;;;;;;;11.77;6.60;;;11.00;99.90;;;;;;5015049;28;20508;-72
2022/01/02 02:51:08;;;;;;;15.23;8.20;;;10.90;99.90;;;;;;5034385;28;20122;-72
2022/01/02 02:53:36;;;;;;;16.17;7.40;;;10.90;99.90;;;;;;5035423;28;20088;-72
2022/01/02 02:56:12;;;;;;;15.18;7.82;;;10.90;99.90;;;;;;5017758;28;20124;-73
2022/01/02 02:58:41;;;;;;;10.88;6.68;;;10.90;99.90;;;;;;5034446;28;20516;-72
2022/01/02 03:01:11;;;;;;;16.05;7.47;;;11.00;99.90;;;;;;5016989;28;20098;-74
2022/01/02 03:03:37;;;;;;;15.93;7.70;;;11.00;99.90;;;;;;5034787;28;20045;-74
2022/01/02 03:06:03;;;;;;;14.32;7.30;;;11.00;99.90;;;;;;5033754;28;20051;-72
2022/01/02 03:08:29;;;;;;;13.82;7.38;;;11.00;99.90;;;;;;5034816;28;20064;-72
2022/01/02 03:10:54;;;;;;;13.05;7.88;;;10.90;99.90;;;;;;5017160;28;20054;-71
2022/01/02 03:13:20;;;;;;;13.00;7.00;;;10.90;99.90;;;;;;5015465;28;20069;-73
2022/01/02 03:15:45;;;;;;;12.82;7.03;;;10.90;99.90;;;;;;5014496;28;20052;-73
2022/01/02 03:18:11;;;;;;;13.73;7.00;;;10.90;99.90;;;;;;4998706;28;20053;-74
2022/01/02 03:20:37;;;;;;;15.43;7.18;;;10.90;99.90;;;;;;5018183;28;20488;-72
2022/01/02 03:23:02;;;;;;;16.58;7.40;;;10.90;99.90;;;;;;5033951;28;20052;-73
2022/01/02 03:25:28;;;;;;;11.95;7.00;;;10.90;99.90;;;;;;5033185;28;20045;-73
2022/01/02 03:27:53;;;;;;;16.27;7.70;;;10.90;99.90;;;;;;5034799;28;20056;-76
2022/01/02 03:30:19;;;;;;;13.32;7.15;;;10.90;99.90;;;;;;5018008;28;20390;-72
2022/01/02 03:32:45;;;;;;;12.32;7.43;;;10.90;99.90;;;;;;5033620;28;20053;-73
2022/01/02 03:35:10;;;;;;;13.35;7.53;;;10.90;99.90;;;;;;5018101;28;20045;-72
2022/01/02 03:37:36;;;;;;;15.50;7.07;;;10.90;99.90;;;;;;5037329;28;20056;-72
2022/01/02 03:40:04;;;;;;;12.73;6.95;;;10.90;99.90;;;;;;5037784;28;20486;-75
2022/01/02 03:42:30;;;;;;;10.77;6.60;;;10.90;99.90;;;;;;5038514;28;20115;-73
2022/01/02 03:44:59;;;;;;;13.15;6.85;;;10.80;99.90;;;;;;5038008;28;20453;-74
2022/01/02 03:47:25;;;;;;;15.73;7.07;;;10.80;99.90;;;;;;5038031;28;20349;-71
2022/01/02 03:49:50;;;;;;;16.15;6.72;;;10.90;99.90;;;;;;5038805;28;20160;-72
2022/01/02 03:52:16;;;;;;;10.75;6.40;;;10.80;99.90;;;;;;5037974;28;20549;-73
2022/01/02 03:54:42;;;;;;;17.30;7.05;;;10.90;99.90;;;;;;5036039;28;20049;-75
2022/01/02 03:57:07;;;;;;;13.27;6.57;;;10.90;99.90;;;;;;5020994;28;20060;-75
2022/01/02 03:59:33;;;;;;;13.80;7.35;;;10.90;99.90;;;;;;5038389;28;20060;-71
2022/01/02 04:01:58;;;;;;;19.17;7.32;;;10.90;99.90;;;;;;5021326;28;20056;-73
2022/01/02 04:04:24;;;;;;;13.23;6.82;;;10.90;99.90;;;;;;5038302;28;20051;-74
2022/01/02 04:06:50;;;;;;;13.50;6.57;;;11.00;99.90;;;;;;5038324;28;20535;-72
2022/01/02 04:09:15;;;;;;;18.38;6.93;;;10.90;99.90;;;;;;5036369;28;20045;-72
2022/01/02 04:11:41;;;;;;;15.52;6.38;;;10.90;99.90;;;;;;5038344;28;20080;-73
2022/01/02 04:14:07;;;;;;;11.07;6.38;;;11.00;99.90;;;;;;5037866;28;20056;-74
2022/01/02 04:16:32;;;;;;;13.05;6.55;;;11.00;99.90;;;;;;5020755;28;20378;-73
2022/01/02 04:18:58;;;;;;;16.27;6.57;;;11.00;99.90;;;;;;5037716;28;20127;-74
2022/01/02 04:21:24;;;;;;;13.30;6.28;;;11.00;99.90;;;;;;5053865;28;20052;-73
2022/01/02 04:23:49;;;;;;;14.70;6.63;;;11.00;99.90;;;;;;5031841;28;20037;-72
2022/01/02 04:26:15;;;;;;;13.20;6.28;;;11.00;99.90;;;;;;5017996;28;20133;-73
2022/01/02 04:28:40;;;;;;;15.57;6.30;;;11.00;99.90;;;;;;5017980;28;20045;-72
2022/01/02 04:31:06;;;;;;;14.90;6.75;;;11.00;99.90;;;;;;5017666;28;20064;-72
2022/01/02 04:33:34;;;;;;;17.35;6.53;;;11.00;99.90;;;;;;5017696;28;20053;-73
2022/01/02 04:36:00;;;;;;;11.57;6.40;;;11.00;99.90;;;;;;5017544;28;20045;-72
2022/01/02 04:38:25;;;;;;;15.70;5.93;;;11.10;99.90;;;;;;5035699;28;20045;-72
2022/01/02 04:40:51;;;;;;;13.07;6.38;;;11.10;99.90;;;;;;5037181;28;20482;-72
2022/01/02 04:43:16;;;;;;;12.65;5.80;;;11.10;99.90;;;;;;5037326;28;20067;-74
2022/01/02 04:45:42;;;;;;;12.73;6.03;;;11.10;99.90;;;;;;5055110;28;20055;-72
2022/01/02 04:48:08;;;;;;;16.27;5.90;;;11.10;99.90;;;;;;5036012;28;20084;-72
2022/01/02 04:50:33;;;;;;;13.45;6.00;;;11.20;99.90;;;;;;5036919;28;20049;-74
2022/01/02 04:52:59;;;;;;;12.55;5.43;;;11.20;99.90;;;;;;5036791;28;20040;-72
2022/01/02 04:55:24;;;;;;;13.45;5.60;;;11.20;99.90;;;;;;5037289;28;20089;-72
2022/01/02 04:57:50;;;;;;;12.77;5.55;;;11.30;99.90;;;;;;5037124;28;20106;-71
2022/01/02 05:00:16;;;;;;;13.93;5.85;;;11.30;99.90;;;;;;5037168;28;20080;-73
2022/01/02 05:02:41;;;;;;;12.65;5.00;;;11.30;99.90;;;;;;5020299;28;20044;-72
2022/01/02 05:05:07;;;;;;;14.80;6.00;;;11.30;99.90;;;;;;5036637;28;20563;-73
2022/01/02 05:07:33;;;;;;;12.30;5.90;;;11.40;99.90;;;;;;5036414;28;20057;-73
2022/01/02 05:09:59;;;;;;;13.38;4.93;;;11.40;99.90;;;;;;5036786;28;20064;-71
2022/01/02 05:12:25;;;;;;;12.10;4.97;;;11.40;99.90;;;;;;5035461;28;20112;-72
2022/01/02 05:14:51;;;;;;;15.25;5.57;;;11.40;99.90;;;;;;5031029;28;20451;-76
2022/01/02 05:17:16;;;;;;;14.52;4.80;;;11.40;99.90;;;;;;5016100;28;20050;-74
2022/01/02 05:19:42;;;;;;;14.05;4.70;;;11.40;99.90;;;;;;5016759;28;20057;-73
2022/01/02 05:22:07;;;;;;;15.02;5.68;;;11.40;99.90;;;;;;5028495;28;20064;-71
2022/01/02 05:24:33;;;;;;;14.88;4.70;;;11.40;99.90;;;;;;5037190;28;20085;-73
2022/01/02 05:26:59;;;;;;;15.77;5.28;;;11.40;99.90;;;;;;5053041;28;20490;-73
2022/01/02 05:29:24;;;;;;;13.60;5.05;;;11.40;99.90;;;;;;5034216;28;20055;-72
2022/01/02 05:31:50;;;;;;;11.45;5.18;;;11.40;99.90;;;;;;4999544;28;20127;-73
2022/01/02 05:34:16;;;;;;;12.07;5.95;;;11.40;99.90;;;;;;5016384;28;20133;-74
2022/01/02 05:36:48;;;;;;;11.82;5.10;;;11.40;99.90;;;;;;5026443;28;20136;-73
2022/01/02 05:39:15;;;;;;;13.80;5.55;;;11.40;99.90;;;;;;5036016;28;20081;-72
2022/01/02 05:41:41;;;;;;;14.68;4.30;;;11.40;99.90;;;;;;5036049;28;20140;-74
2022/01/02 05:44:06;;;;;;;16.92;4.90;;;11.40;99.90;;;;;;5034160;28;20129;-72
2022/01/02 05:46:32;;;;;;;11.10;4.80;;;11.40;99.90;;;;;;5035211;28;20049;-72
2022/01/02 05:48:57;;;;;;;15.75;4.82;;;11.50;99.90;;;;;;5035808;28;20077;-74
2022/01/02 05:51:23;;;;;;;16.20;5.05;;;11.50;99.90;;;;;;5035197;28;20087;-73
2022/01/02 05:53:49;;;;;;;12.90;4.50;;;11.50;99.90;;;;;;5036110;28;20125;-73
2022/01/02 05:56:14;;;;;;;13.02;5.30;;;11.60;99.90;;;;;;5035810;28;20122;-73
2022/01/02 05:58:42;;;;;;;10.30;4.47;;;11.60;99.90;;;;;;5033851;28;20053;-74
2022/01/02 06:01:08;;;;;;;10.38;4.60;;;11.60;99.90;;;;;;5015800;28;20120;-74
2022/01/02 06:03:34;;;;;;;11.20;4.07;;;11.70;99.90;;;;;;5016615;28;20522;-73
2022/01/02 06:05:59;;;;;;;14.10;4.22;;;11.70;99.90;;;;;;5017574;28;20498;-74
2022/01/02 06:08:25;;;;;;;12.70;4.65;;;11.70;99.90;;;;;;5035239;28;20099;-72
2022/01/02 06:10:50;;;;;;;11.43;4.25;;;11.70;99.90;;;;;;5035764;28;20053;-71
2022/01/02 06:13:16;;;;;;;14.48;4.57;;;11.70;99.90;;;;;;5035074;28;20405;-74
2022/01/02 06:15:42;;;;;;;10.88;4.90;;;11.80;99.90;;;;;;5035228;28;20056;-74
2022/01/02 06:18:07;;;;;;;14.90;4.25;;;11.80;99.90;;;;;;5053324;28;20052;-75
2022/01/02 06:20:33;;;;;;;10.20;4.28;;;11.90;99.90;;;;;;5034698;28;20132;-74
2022/01/02 06:22:58;;;;;;;10.85;4.15;;;11.90;99.90;;;;;;5035425;28;20041;-73
2022/01/02 06:25:24;;;;;;;11.00;4.40;;;11.90;99.90;;;;;;5019254;28;20140;-74
2022/01/02 06:27:50;;;;;;;10.95;3.42;;;11.90;99.90;;;;;;5035231;28;20103;-74
2022/01/02 06:30:16;;;;;;;10.43;4.10;;;11.90;99.90;;;;;;5032967;28;20053;-72
2022/01/02 06:32:42;;;;;;;10.18;3.85;;;12.00;99.90;;;;;;4998780;28;20055;-74
2022/01/02 06:35:08;;;;;;;8.55;3.80;;;12.00;99.90;;;;;;5019649;28;20049;-73
2022/01/02 06:37:33;;;;;;;10.05;3.90;;;11.90;99.90;;;;;;5035677;28;20052;-73
2022/01/02 06:39:59;;;;;;;9.82;3.72;;;11.90;99.90;;;;;;5035515;28;20159;-74
2022/01/02 06:42:25;;;;;;;6.88;3.63;;;12.00;99.90;;;;;;5034446;28;20550;-72
2022/01/02 06:44:51;;;;;;;11.63;3.78;;;11.90;99.90;;;;;;5036175;28;20045;-73
2022/01/02 06:47:16;;;;;;;10.32;3.60;;;12.00;99.90;;;;;;5050914;28;20045;-73
2022/01/02 06:49:42;;;;;;;9.63;3.85;;;12.00;99.90;;;;;;5035495;28;20168;-75
2022/01/02 06:52:08;;;;;;;9.55;3.88;;;12.00;99.90;;;;;;5018524;28;20095;-72
2022/01/02 06:54:34;;;;;;;9.38;4.05;;;11.90;99.90;;;;;;5034317;28;20083;-73
2022/01/02 06:57:00;;;;;;;13.68;3.97;;;11.90;99.90;;;;;;5044972;28;20355;-72
2022/01/02 06:59:26;;;;;;;7.63;3.50;;;11.90;99.90;;;;;;5031897;28;20056;-72
2022/01/02 07:01:51;;;;;;;13.02;4.53;;;11.90;99.90;;;;;;5034227;28;20049;-72
2022/01/02 07:04:17;;;;;;;8.40;3.92;;;11.90;99.90;;;;;;5034147;28;20063;-72
2022/01/02 07:06:42;;;;;;;11.48;4.40;;;11.90;99.90;;;;;;5052254;28;20124;-72
2022/01/02 07:09:08;;;;;;;11.23;4.22;;;11.90;99.90;;;;;;5026796;28;20089;-72
2022/01/02 07:11:33;;;;;;;8.10;3.83;;;11.80;99.90;;;;;;5036259;28;20045;-72
2022/01/02 07:13:59;;;;;;;7.88;3.60;;;11.80;99.90;;;;;;5033347;28;20195;-74
2022/01/02 07:16:25;;;;;;;9.88;3.70;;;11.80;99.90;;;;;;5030780;28;20063;-72
2022/01/02 07:18:50;;;;;;;6.63;3.80;;;11.80;99.90;;;;;;5027802;28;20038;-73
2022/01/02 07:21:17;;;;;;;6.72;3.50;;;11.80;99.90;;;;;;5031360;28;20057;-72
2022/01/02 07:23:44;;;;;;;7.50;3.83;;;11.80;99.90;;;;;;5032176;28;20103;-72
2022/01/02 07:26:09;;;;;;;13.73;4.32;;;11.80;99.90;;;;;;5028208;28;20049;-73
2022/01/02 07:28:35;;;;;;;9.65;3.78;;;11.70;99.90;;;;;;5016832;28;20470;-71
2022/01/02 07:31:01;;;;;;;10.85;4.35;;;11.70;99.90;;;;;;5021888;28;20041;-71
2022/01/02 07:33:26;;;;;;;11.50;4.47;;;11.70;99.90;;;;;;5027352;28;20069;-69
2022/01/02 07:35:52;;;;;;;11.60;4.60;;;11.70;99.90;;;;;;5019273;28;20125;-70
2022/01/02 07:38:18;;;;;;;8.65;4.30;;;11.70;99.90;;;;;;5026212;28;20124;-73
2022/01/02 07:40:45;;;;;;;6.65;4.00;;;11.70;99.90;;;;;;5029400;28;20044;-73
2022/01/02 07:43:10;;;;;;;10.80;4.75;;;11.70;99.90;;;;;;5031502;28;20053;-71
2022/01/02 07:45:36;;;;;;;6.80;4.25;;;11.70;99.90;;;;;;5029236;28;20041;-74
2022/01/02 07:48:04;;;;;;;9.90;4.55;;;11.70;99.90;;;;;;5030358;28;20050;-72
2022/01/02 07:50:30;;;;;;;8.23;3.97;;;11.70;99.90;;;;;;5019892;28;20054;-72
2022/01/02 07:52:55;;;;;;;5.75;4.07;;;11.70;99.90;;;;;;5007130;28;20041;-71
2022/01/02 07:55:24;;;;;;;8.73;4.45;;;11.70;99.90;;;;;;5031466;28;20041;-71
2022/01/02 07:57:50;;;;;;;9.57;5.75;;;11.70;99.90;;;;;;5024952;28;20049;-73
2022/01/02 08:00:17;;;;;;;11.95;5.65;;;11.70;99.90;;;;;;5030089;28;20059;-72
2022/01/02 08:02:42;;;;;;;15.18;6.20;;;11.70;99.90;;;;;;5042902;28;20128;-72
2022/01/02 08:05:10;;;;;;;9.75;5.63;;;11.70;99.90;;;;;;5026045;28;20309;-71
2022/01/02 08:07:39;;;;;;;13.05;8.43;;;11.60;99.90;;;;;;5008944;28;20088;-71
2022/01/02 08:10:05;;;;;;;11.32;7.32;;;11.60;99.90;;;;;;5021121;28;20550;-72
2022/01/02 08:12:32;;;;;;;13.13;7.15;;;11.60;99.90;;;;;;5025960;28;20540;-73
2022/01/02 08:14:58;;;;;;;13.07;7.15;;;11.70;99.90;;;;;;5014512;28;20541;-73
2022/01/02 08:17:23;;;;;;;10.55;5.10;;;11.60;99.90;;;;;;5027912;28;20120;-72
2022/01/02 08:19:49;;;;;;;16.20;8.63;;;11.50;99.90;;;;;;5030786;28;20440;-75
2022/01/02 08:22:15;;;;;;;11.95;7.55;;;11.50;99.90;;;;;;5016331;28;20045;-72
2022/01/02 08:25:06;;;;;;;18.20;8.80;;;11.50;99.90;;;;;;5028020;28;20396;-71
2022/01/02 08:27:32;;;;;;;12.93;8.15;;;11.30;99.90;;;;;;5027219;28;20042;-71
2022/01/02 08:29:58;;;;;;;13.95;7.82;;;11.50;99.90;;;;;;5029015;28;20037;-72
2022/01/02 08:32:24;;;;;;;8.77;5.93;;;11.50;99.90;;;;;;5025456;28;20037;-72
2022/01/02 08:34:51;;;;;;;9.85;5.55;;;11.50;99.90;;;;;;5027549;28;20476;-73
2022/01/02 08:37:20;;;;;;;8.50;5.20;;;11.50;99.90;;;;;;5021916;28;20081;-72
2022/01/02 08:39:45;;;;;;;10.32;5.97;;;11.50;99.90;;;;;;5029715;28;20042;-73
2022/01/02 08:42:13;;;;;;;10.35;4.90;;;11.40;99.90;;;;;;5014442;28;20044;-74
2022/01/02 08:44:48;;;;;;;11.27;5.97;;;11.40;99.90;;;;;;5020061;28;20084;-76
2022/01/02 08:47:13;;;;;;;8.70;5.38;;;11.40;99.90;;;;;;5025821;28;20048;-74
2022/01/02 08:49:49;;;;;;;8.25;4.78;;;11.40;99.90;;;;;;5025464;28;20053;-71
2022/01/02 08:52:14;;;;;;;12.98;5.28;;;11.30;99.90;;;;;;5043382;28;20063;-72
2022/01/02 08:54:40;;;;;;;11.68;5.50;;;11.30;99.90;;;;;;5015660;28;20042;-72
2022/01/02 08:57:06;;;;;;;8.43;4.93;;;11.30;99.90;;;;;;5051211;28;20044;-71
2022/01/02 08:59:32;;;;;;;11.77;5.75;;;11.30;99.90;;;;;;5015651;28;20033;-74
2022/01/02 09:01:58;;;;;;;9.25;4.70;;;11.20;99.90;;;;;;5029132;28;20041;-72
2022/01/02 09:04:24;;;;;;;11.80;4.90;;;11.20;99.90;;;;;;5014716;28;20123;-71
2022/01/02 09:06:49;;;;;;;11.95;4.43;;;11.20;99.90;;;;;;5019466;28;20116;-71
2022/01/02 09:09:15;;;;;;;10.27;4.93;;;11.30;99.90;;;;;;5022563;28;20497;-71
2022/01/02 09:11:41;;;;;;;9.50;4.50;;;11.30;99.90;;;;;;5036781;28;20067;-71
2022/01/02 09:14:10;;;;;;;9.80;4.63;;;11.40;99.90;;;;;;5041833;28;20037;-72
2022/01/02 09:16:36;;;;;;;7.63;4.45;;;11.40;99.90;;;;;;5030906;28;20053;-72
2022/01/02 09:19:02;;;;;;;6.43;4.30;;;11.50;99.90;;;;;;5031956;28;20052;-71
2022/01/02 09:21:28;;;;;;;7.75;4.40;;;11.50;99.90;;;;;;5033411;28;20052;-71
2022/01/02 09:23:53;;;;;;;8.13;4.65;;;11.50;99.90;;;;;;5027756;28;20377;-74
2022/01/02 09:26:19;;;;;;;10.82;4.28;;;11.50;99.90;;;;;;5030859;28;20038;-76
2022/01/02 09:28:44;;;;;;;10.15;4.20;;;11.50;99.90;;;;;;5045163;28;20187;-74
2022/01/02 09:31:14;;;;;;;9.45;4.38;;;11.60;99.90;;;;;;5027586;28;20175;-72
2022/01/02 09:33:39;;;;;;;10.30;4.30;;;11.60;99.90;;;;;;5035807;28;20497;-72
2022/01/02 09:36:08;;;;;;;9.32;4.75;;;11.60;99.90;;;;;;5035393;28;20040;-75
2022/01/02 09:38:37;;;;;;;8.77;4.18;;;11.60;99.90;;;;;;5051677;28;20148;-72
2022/01/02 09:41:05;;;;;;;9.88;6.30;;;11.60;99.90;;;;;;5052959;28;20084;-75
2022/01/02 09:43:32;;;;;;;9.95;3.97;;;11.70;99.90;;;;;;5048003;28;20068;-73
2022/01/02 09:46:03;;;;;;;9.65;4.82;;;11.70;99.90;;;;;;5024174;28;20049;-73
2022/01/02 09:48:50;;;;;;;8.95;4.30;;;11.70;99.90;;;;;;5013044;28;20052;-72
2022/01/02 09:51:24;;;;;;;9.70;4.75;;;11.70;99.90;;;;;;5020345;28;20045;-71
2022/01/02 09:53:51;;;;;;;7.95;4.35;;;11.70;99.90;;;;;;5028352;28;20045;-74
2022/01/02 09:56:18;;;;;;;10.23;4.80;;;11.70;99.90;;;;;;5030598;28;20077;-75
2022/01/02 09:58:44;;;;;;;12.93;4.93;;;11.70;99.90;;;;;;5025290;28;20041;-72
2022/01/02 10:05:11;;;;;;;9.90;5.07;;;11.80;99.90;;;;;;5046961;28;20070;-71
2022/01/02 10:07:39;;;;;;;7.93;5.10;;;11.90;99.90;;;;;;5024376;28;20864;-71
2022/01/02 10:10:10;;;;;;;8.30;5.28;;;11.80;99.90;;;;;;5025407;28;20076;-74
2022/01/02 10:12:37;;;;;;;11.70;5.03;;;11.80;99.90;;;;;;5024581;28;20041;-74
2022/01/02 10:15:23;;;;;;;8.18;5.20;;;11.80;99.90;;;;;;5027103;28;20088;-70
2022/01/02 10:18:06;;;;;;;14.68;5.97;;;11.80;99.90;;;;;;5023993;28;20050;-76
2022/01/02 10:20:34;;;;;;;9.43;5.18;;;11.80;99.90;;;;;;5052415;28;20060;-74
2022/01/02 10:23:03;;;;;;;9.02;5.15;;;11.90;99.90;;;;;;5020784;28;20111;-74
2022/01/02 10:26:03;;;;;;;7.68;5.10;;;11.90;99.90;;;;;;5052615;28;20049;-71
2022/01/02 10:28:37;;;;;;;10.38;5.40;;;11.90;99.90;;;;;;5008432;28;20051;-72
2022/01/02 10:31:07;;;;;;;8.50;5.15;;;11.90;99.90;;;;;;5016406;28;20053;-73
2022/01/02 10:33:54;;;;;;;10.98;4.78;;;11.90;99.90;;;;;;5029978;28;20496;-73
2022/01/02 10:36:29;;;;;;;6.68;5.75;;;12.00;99.90;;;;;;5027760;28;20052;-76
2022/01/02 10:39:18;;;;;;;10.20;5.13;;;12.00;99.90;;;;;;5019583;28;20041;-72
2022/01/02 10:41:47;;;;;;;8.98;5.18;;;12.10;99.90;;;;;;5022732;28;20503;-71
2022/01/02 10:44:34;;;;;;;8.13;5.18;;;12.10;99.90;;;;;;5026385;28;20060;-71
2022/01/02 10:47:25;;;;;;;10.15;4.78;;;12.10;99.90;;;;;;5009862;28;20041;-71
2022/01/02 10:50:04;;;;;;;7.38;5.20;;;12.20;99.90;;;;;;5043624;28;20052;-71
2022/01/02 10:52:30;;;;;;;9.52;5.30;;;12.20;99.90;;;;;;5026337;28;20037;-73
2022/01/02 10:54:59;;;;;;;9.80;5.60;;;12.20;99.90;;;;;;5049106;28;20045;-72
2022/01/02 10:57:29;;;;;;;7.13;5.55;;;12.30;99.90;;;;;;5026286;28;20041;-73
2022/01/02 10:59:57;;;;;;;7.07;5.38;;;12.30;99.90;;;;;;5025911;28;20045;-72
2022/01/02 11:02:28;;;;;;;8.07;5.22;;;12.40;99.90;;;;;;5018575;28;20507;-71
2022/01/02 11:05:12;;;;;;;8.70;5.68;;;12.40;99.90;;;;;;5030594;28;20041;-72
2022/01/02 11:07:39;;;;;;;7.22;5.00;;;12.30;99.90;;;;;;5022937;28;20124;-71
2022/01/02 11:10:06;;;;;;;8.52;5.32;;;12.30;99.90;;;;;;5051487;28;20086;-71
2022/01/02 11:12:32;;;;;;;7.13;4.15;;;12.30;99.90;;;;;;5025604;28;20065;-72
2022/01/02 11:15:01;;;;;;;8.43;4.72;;;12.30;99.90;;;;;;5017541;28;20044;-71
2022/01/02 11:17:27;;;;;;;9.07;4.70;;;12.30;99.90;;;;;;5026433;28;20048;-73
2022/01/02 11:19:53;;;;;;;8.77;4.90;;;12.30;99.90;;;;;;5023904;28;20366;-74
2022/01/02 11:22:49;;;;;;;9.20;5.32;;;12.20;99.90;;;;;;5009537;28;20049;-72
2022/01/02 11:25:33;;;;;;;10.13;5.93;;;12.20;99.90;;;;;;4983318;28;20095;-71
2022/01/02 11:28:03;;;;;;;12.23;5.60;;;12.20;99.90;;;;;;5024785;28;20060;-73
2022/01/02 11:30:34;;;;;;;11.45;5.82;;;12.10;99.90;;;;;;5028127;28;20128;-71
2022/01/02 11:33:12;;;;;;;7.97;5.87;;;12.10;99.90;;;;;;5022390;28;20148;-73
2022/01/02 11:35:41;;;;;;;9.20;6.32;;;12.10;99.90;;;;;;5032365;28;20048;-70
2022/01/02 11:38:07;;;;;;;8.07;5.20;;;12.10;99.90;;;;;;5049952;28;20056;-74
2022/01/02 11:40:47;;;;;;;9.27;5.68;;;12.10;99.90;;;;;;5037369;28;20438;-72
2022/01/02 11:43:35;;;;;;;12.00;6.10;;;12.00;99.90;;;;;;5041730;28;20076;-71
2022/01/02 11:46:17;;;;;;;10.80;6.03;;;12.10;99.90;;;;;;5024114;28;20049;-71
2022/01/02 11:49:03;;;;;;;8.82;5.60;;;12.10;99.90;;;;;;5047095;28;20222;-72
2022/01/02 11:51:47;;;;;;;10.35;6.03;;;12.00;99.90;;;;;;5030348;28;20152;-72
2022/01/02 11:54:47;;;;;;;12.82;5.70;;;12.10;99.90;;;;;;5021240;28;20053;-71
2022/01/02 11:57:18;;;;;;;12.40;6.10;;;12.10;99.90;;;;;;4956863;28;20090;-70
2022/01/02 11:59:46;;;;;;;13.13;5.80;;;12.10;99.90;;;;;;5006735;28;20397;-74
2022/01/02 12:02:21;;;;;;;10.68;5.05;;;12.00;99.90;;;;;;5027685;28;20053;-74
2022/01/02 12:04:59;;;;;;;13.07;5.40;;;12.00;99.90;;;;;;5026948;28;20033;-73
2022/01/02 12:07:37;;;;;;;9.95;4.88;;;12.00;99.90;;;;;;5036242;28;20394;-72
2022/01/02 12:10:15;;;;;;;11.75;5.07;;;12.00;99.90;;;;;;5036606;28;20103;-74
2022/01/02 12:12:56;;;;;;;8.00;4.20;;;12.00;99.90;;;;;;5027986;28;20508;-72
2022/01/02 12:15:23;;;;;;;11.35;4.78;;;12.00;99.90;;;;;;5029081;28;20045;-71
2022/01/02 12:18:10;;;;;;;6.78;4.20;;;12.10;99.90;;;;;;5032456;28;20049;-72
2022/01/02 12:20:57;;;;;;;12.48;5.07;;;12.10;99.90;;;;;;5018175;28;20072;-74
2022/01/02 12:23:35;;;;;;;7.55;3.95;;;12.10;99.90;;;;;;5018016;28;20106;-74
2022/01/02 12:26:11;;;;;;;11.45;4.03;;;12.10;99.90;;;;;;5008861;28;20056;-73
2022/01/02 12:28:39;;;;;;;7.75;3.50;;;12.00;99.90;;;;;;5009550;28;20497;-70
2022/01/02 12:31:06;;;;;;;13.07;3.95;;;12.00;99.90;;;;;;5029584;28;20670;-72
2022/01/02 12:33:32;;;;;;;7.47;3.33;;;12.00;99.90;;;;;;5033731;28;20103;-71
2022/01/02 12:36:11;;;;;;;8.10;3.55;;;12.10;99.90;;;;;;5035082;28;20045;-73
2022/01/02 12:38:49;;;;;;;11.70;3.40;;;12.00;99.90;;;;;;5019304;28;20076;-73
2022/01/02 12:41:17;;;;;;;6.32;2.92;;;12.10;99.90;;;;;;5033036;28;20129;-71
2022/01/02 12:44:02;;;;;;;9.02;2.97;;;12.10;99.90;;;;;;5024271;28;20388;-74
2022/01/02 12:46:50;;;;;;;11.18;2.90;;;12.10;99.90;;;;;;5021058;28;20057;-71
2022/01/02 12:49:20;;;;;;;10.48;3.10;;;12.10;99.90;;;;;;5026045;28;20045;-75
2022/01/02 12:51:57;;;;;;;7.63;3.20;;;12.40;99.90;;;;;;5029935;28;20107;-74
2022/01/02 12:54:27;;;;;;;6.10;2.45;;;11.80;99.90;;;;;;5032175;28;20460;-74
2022/01/02 12:57:02;;;;;;;11.73;2.60;;;12.10;99.90;;;;;;5018299;28;20049;-72
2022/01/02 12:59:34;;;;;;;10.05;2.90;;;12.10;99.90;;;;;;5031432;28;20749;-75
2022/01/02 13:02:09;;;;;;;7.80;2.80;;;12.00;99.90;;;;;;5034167;28;20465;-72